PWSweather.com
Personal Weather Stations
Station Observations
COONRAPIDS
Minneapolis, MN 55433

Minneapolis, MN 55433

Lat: 45.187721, Lon: -93.36828

Elevation: 898

Station Type: Davis Vantage Pro 2

High Low Average
Temperature 14.0°F-10.0°C -2.7°F-19.3°C 5.8°F-14.6°C
Dew Point 4.7°F-15.2°C -9.2°F-22.9°C -0.8°F-18.2°C
Winds 4.6 mph 7.4 kmh Calm Calm 2.0 mph S3.2 kmh S
Wind Gusts 11.5 mph18.5 kmh -- 4.0 mph6.4 kmh
Humidity 80% 64% 74%
Pressure 30.08 in1018.6 mb 29.75 in1007.5 mb -
Precipitation 0.00 in0.0 mm - -
Hour Temp Dew Point Humidity Winds Wind Gusts Pressure Precip Precip Rate Daily Precip Total
12:00 AM 4.1°F-15.5°C -1.0°F-18.3°C 79% 3.5 mph E5.6 kmh E 8.1 mph13.0 kmh 29.75 in1007.5 mb - 0.00 in0.0 mm 0.00 in0.0 mm
12:10 AM 4.2°F-15.4°C -0.9°F-18.3°C 79% 1.2 mph E1.9 kmh E 5.8 mph9.3 kmh 29.75 in1007.5 mb - 0.00 in0.0 mm 0.00 in0.0 mm
12:20 AM 4.3°F-15.4°C -0.8°F-18.2°C 79% 2.3 mph ESE3.7 kmh ESE 5.8 mph9.3 kmh 29.75 in1007.5 mb - 0.00 in0.0 mm 0.00 in0.0 mm
12:30 AM 4.4°F-15.3°C -0.4°F-18.0°C 80% 2.3 mph E3.7 kmh E 3.5 mph5.6 kmh 29.75 in1007.5 mb - 0.00 in0.0 mm 0.00 in0.0 mm
12:40 AM 4.4°F-15.3°C -0.7°F-18.2°C 79% 1.2 mph ESE1.9 kmh ESE 3.5 mph5.6 kmh 29.75 in1007.5 mb - 0.00 in0.0 mm 0.00 in0.0 mm
12:50 AM 4.5°F-15.3°C -0.6°F-18.1°C 79% 1.2 mph E1.9 kmh E 3.5 mph5.6 kmh 29.75 in1007.5 mb - 0.00 in0.0 mm 0.00 in0.0 mm
01:00 AM 4.6°F-15.2°C -0.5°F-18.1°C 79% 2.3 mph E3.7 kmh E 5.8 mph9.3 kmh 29.75 in1007.5 mb - 0.00 in0.0 mm 0.00 in0.0 mm
01:10 AM 4.6°F-15.2°C -0.5°F-18.1°C 79% 1.2 mph E1.9 kmh E 3.5 mph5.6 kmh 29.75 in1007.5 mb - 0.00 in0.0 mm 0.00 in0.0 mm
01:20 AM 4.6°F-15.2°C -0.5°F-18.1°C 79% 4.6 mph E7.4 kmh E 6.9 mph11.1 kmh 29.75 in1007.5 mb - 0.00 in0.0 mm 0.00 in0.0 mm
01:30 AM 4.6°F-15.2°C -0.5°F-18.1°C 79% 1.2 mph E1.9 kmh E 2.3 mph3.7 kmh 29.75 in1007.5 mb - 0.00 in0.0 mm 0.00 in0.0 mm
01:40 AM 4.6°F-15.2°C -0.5°F-18.1°C 79% 3.5 mph E5.6 kmh E 3.5 mph5.6 kmh 29.75 in1007.5 mb - 0.00 in0.0 mm 0.00 in0.0 mm
01:50 AM 4.6°F-15.2°C -0.5°F-18.1°C 79% 2.3 mph E3.7 kmh E 4.6 mph7.4 kmh 29.75 in1007.5 mb - 0.00 in0.0 mm 0.00 in0.0 mm
02:00 AM 4.6°F-15.2°C -0.5°F-18.1°C 79% 2.3 mph NE3.7 kmh NE 6.9 mph11.1 kmh 29.75 in1007.5 mb - 0.00 in0.0 mm 0.00 in0.0 mm
02:10 AM 4.6°F-15.2°C -0.5°F-18.1°C 79% Calm Calm 3.5 mph5.6 kmh 29.77 in1008.1 mb - 0.00 in0.0 mm 0.00 in0.0 mm
02:20 AM 4.5°F-15.3°C -0.6°F-18.1°C 79% 3.5 mph E5.6 kmh E 4.6 mph7.4 kmh 29.76 in1007.8 mb - 0.00 in0.0 mm 0.00 in0.0 mm
02:30 AM 4.5°F-15.3°C -0.6°F-18.1°C 79% 1.2 mph E1.9 kmh E 3.5 mph5.6 kmh 29.77 in1008.1 mb - 0.00 in0.0 mm 0.00 in0.0 mm
02:40 AM 4.5°F-15.3°C -0.6°F-18.1°C 79% 1.2 mph E1.9 kmh E 3.5 mph5.6 kmh 29.77 in1008.1 mb - 0.00 in0.0 mm 0.00 in0.0 mm
02:50 AM 4.5°F-15.3°C -0.6°F-18.1°C 79% 1.2 mph E1.9 kmh E 3.5 mph5.6 kmh 29.77 in1008.1 mb - 0.00 in0.0 mm 0.00 in0.0 mm
03:00 AM 4.5°F-15.3°C -0.6°F-18.1°C 79% 2.3 mph ENE3.7 kmh ENE 4.6 mph7.4 kmh 29.78 in1008.5 mb - 0.00 in0.0 mm 0.00 in0.0 mm
03:10 AM 4.6°F-15.2°C -0.5°F-18.1°C 79% 2.3 mph E3.7 kmh E 5.8 mph9.3 kmh 29.78 in1008.5 mb - 0.00 in0.0 mm 0.00 in0.0 mm
03:20 AM 4.6°F-15.2°C -0.5°F-18.1°C 79% 3.5 mph ENE5.6 kmh ENE 6.9 mph11.1 kmh 29.78 in1008.5 mb - 0.00 in0.0 mm 0.00 in0.0 mm
03:30 AM 4.6°F-15.2°C -0.5°F-18.1°C 79% 3.5 mph ENE5.6 kmh ENE 8.1 mph13.0 kmh 29.78 in1008.5 mb - 0.00 in0.0 mm 0.00 in0.0 mm
03:40 AM 4.6°F-15.2°C -0.5°F-18.1°C 79% 2.3 mph ENE3.7 kmh ENE 6.9 mph11.1 kmh 29.79 in1008.8 mb - 0.00 in0.0 mm 0.00 in0.0 mm
03:50 AM 4.6°F-15.2°C -0.5°F-18.1°C 79% 2.3 mph ENE3.7 kmh ENE 3.5 mph5.6 kmh 29.79 in1008.8 mb - 0.00 in0.0 mm 0.00 in0.0 mm
04:00 AM 4.6°F-15.2°C -0.5°F-18.1°C 79% 3.5 mph E5.6 kmh E 5.8 mph9.3 kmh 29.78 in1008.5 mb - 0.00 in0.0 mm 0.00 in0.0 mm
04:10 AM 4.7°F-15.2°C -0.4°F-18.0°C 79% 3.5 mph ENE5.6 kmh ENE 9.2 mph14.8 kmh 29.79 in1008.8 mb - 0.00 in0.0 mm 0.00 in0.0 mm
04:20 AM 4.7°F-15.2°C -0.4°F-18.0°C 79% 3.5 mph ENE5.6 kmh ENE 6.9 mph11.1 kmh 29.79 in1008.8 mb - 0.00 in0.0 mm 0.00 in0.0 mm
04:30 AM 4.8°F-15.1°C -0.3°F-17.9°C 79% 3.5 mph NE5.6 kmh NE 8.1 mph13.0 kmh 29.80 in1009.1 mb - 0.00 in0.0 mm 0.00 in0.0 mm
04:40 AM 4.8°F-15.1°C -0.3°F-17.9°C 79% 3.5 mph ENE5.6 kmh ENE 8.1 mph13.0 kmh 29.81 in1009.5 mb - 0.00 in0.0 mm 0.00 in0.0 mm
04:50 AM 4.8°F-15.1°C -0.3°F-17.9°C 79% 2.3 mph NE3.7 kmh NE 3.5 mph5.6 kmh 29.81 in1009.5 mb - 0.00 in0.0 mm 0.00 in0.0 mm
05:00 AM 4.8°F-15.1°C -0.6°F-18.1°C 78% 1.2 mph NE1.9 kmh NE 4.6 mph7.4 kmh 29.82 in1009.8 mb - 0.00 in0.0 mm 0.00 in0.0 mm
05:10 AM 4.9°F-15.1°C -0.2°F-17.9°C 79% 2.3 mph NE3.7 kmh NE 4.6 mph7.4 kmh 29.82 in1009.8 mb - 0.00 in0.0 mm 0.00 in0.0 mm
05:20 AM 4.8°F-15.1°C -0.2°F-17.9°C 79% Calm Calm -- 29.82 in1009.8 mb - 0.00 in0.0 mm 0.00 in0.0 mm
05:30 AM 4.8°F-15.1°C -0.3°F-17.9°C 79% 2.3 mph ENE3.7 kmh ENE 3.5 mph5.6 kmh 29.82 in1009.8 mb - 0.00 in0.0 mm 0.00 in0.0 mm
05:40 AM 4.7°F-15.2°C -0.1°F-17.8°C 80% 1.2 mph NE1.9 kmh NE 2.3 mph3.7 kmh 29.83 in1010.2 mb - 0.00 in0.0 mm 0.00 in0.0 mm
05:50 AM 4.7°F-15.2°C -0.4°F-18.0°C 79% Calm Calm 1.2 mph1.9 kmh 29.83 in1010.2 mb - 0.00 in0.0 mm 0.00 in0.0 mm
06:00 AM 4.7°F-15.2°C -0.4°F-18.0°C 79% 1.2 mph ENE1.9 kmh ENE 2.3 mph3.7 kmh 29.84 in1010.5 mb - 0.00 in0.0 mm 0.00 in0.0 mm
06:10 AM 4.7°F-15.2°C -0.4°F-18.0°C 79% 2.3 mph NE3.7 kmh NE 3.5 mph5.6 kmh 29.85 in1010.8 mb - 0.00 in0.0 mm 0.00 in0.0 mm
06:20 AM 4.7°F-15.2°C -0.4°F-18.0°C 79% 1.2 mph NE1.9 kmh NE 5.8 mph9.3 kmh 29.85 in1010.8 mb - 0.00 in0.0 mm 0.00 in0.0 mm
06:30 AM 4.6°F-15.2°C -0.2°F-17.9°C 80% Calm Calm 3.5 mph5.6 kmh 29.86 in1011.2 mb - 0.00 in0.0 mm 0.00 in0.0 mm
06:40 AM 4.6°F-15.2°C -0.2°F-17.9°C 80% 2.3 mph NNE3.7 kmh NNE 3.5 mph5.6 kmh 29.87 in1011.5 mb - 0.00 in0.0 mm 0.00 in0.0 mm
06:50 AM 4.6°F-15.2°C -0.2°F-17.9°C 80% 1.2 mph N1.9 kmh N 3.5 mph5.6 kmh 29.88 in1011.9 mb - 0.00 in0.0 mm 0.00 in0.0 mm
07:00 AM 4.5°F-15.3°C -0.3°F-17.9°C 80% Calm Calm -- 29.89 in1012.2 mb - 0.00 in0.0 mm 0.00 in0.0 mm
07:10 AM 4.6°F-15.2°C -0.2°F-17.9°C 80% Calm Calm 1.2 mph1.9 kmh 29.89 in1012.2 mb - 0.00 in0.0 mm 0.00 in0.0 mm
07:20 AM 4.5°F-15.3°C -0.3°F-17.9°C 80% 1.2 mph N1.9 kmh N 3.5 mph5.6 kmh 29.89 in1012.2 mb - 0.00 in0.0 mm 0.00 in0.0 mm
07:30 AM 4.4°F-15.3°C -0.4°F-18.0°C 80% Calm Calm 3.5 mph5.6 kmh 29.90 in1012.5 mb - 0.00 in0.0 mm 0.00 in0.0 mm
07:40 AM 4.2°F-15.4°C -0.9°F-18.3°C 79% 1.2 mph NNE1.9 kmh NNE 2.3 mph3.7 kmh 29.91 in1012.9 mb - 0.00 in0.0 mm 0.00 in0.0 mm
07:50 AM 4.1°F-15.5°C -1.0°F-18.3°C 79% 3.5 mph NNE5.6 kmh NNE 3.5 mph5.6 kmh 29.91 in1012.9 mb - 0.00 in0.0 mm 0.00 in0.0 mm
08:00 AM 4.0°F-15.6°C -1.1°F-18.4°C 79% 1.2 mph NE1.9 kmh NE 4.6 mph7.4 kmh 29.92 in1013.2 mb - 0.00 in0.0 mm 0.00 in0.0 mm
08:10 AM 3.8°F-15.7°C -1.3°F-18.5°C 79% 2.3 mph NE3.7 kmh NE 3.5 mph5.6 kmh 29.93 in1013.5 mb - 0.00 in0.0 mm 0.00 in0.0 mm
08:20 AM 3.7°F-15.7°C -1.4°F-18.6°C 79% 2.3 mph NNE3.7 kmh NNE 2.3 mph3.7 kmh 29.94 in1013.9 mb - 0.00 in0.0 mm 0.00 in0.0 mm
08:30 AM 3.5°F-15.8°C -1.6°F-18.7°C 79% 1.2 mph NNE1.9 kmh NNE 3.5 mph5.6 kmh 29.95 in1014.2 mb - 0.00 in0.0 mm 0.00 in0.0 mm
08:40 AM 3.3°F-15.9°C -1.7°F-18.7°C 79% 2.3 mph NNE3.7 kmh NNE 2.3 mph3.7 kmh 29.95 in1014.2 mb - 0.00 in0.0 mm 0.00 in0.0 mm
08:50 AM 3.3°F-15.9°C -2.0°F-18.9°C 78% 2.3 mph NNE3.7 kmh NNE 2.3 mph3.7 kmh 29.96 in1014.6 mb - 0.00 in0.0 mm 0.00 in0.0 mm
09:00 AM 3.2°F-16.0°C -2.1°F-18.9°C 78% 2.3 mph N3.7 kmh N 3.5 mph5.6 kmh 29.96 in1014.6 mb - 0.00 in0.0 mm 0.00 in0.0 mm
09:10 AM 3.2°F-16.0°C -2.1°F-18.9°C 78% 2.3 mph NNE3.7 kmh NNE 3.5 mph5.6 kmh 29.96 in1014.6 mb - 0.00 in0.0 mm 0.00 in0.0 mm
09:20 AM 3.3°F-15.9°C -2.0°F-18.9°C 78% 2.3 mph N3.7 kmh N 2.3 mph3.7 kmh 29.97 in1014.9 mb - 0.00 in0.0 mm 0.00 in0.0 mm
09:30 AM 3.4°F-15.9°C -1.9°F-18.8°C 78% 3.5 mph NE5.6 kmh NE 3.5 mph5.6 kmh 29.97 in1014.9 mb - 0.00 in0.0 mm 0.00 in0.0 mm
09:40 AM 3.6°F-15.8°C -1.7°F-18.7°C 78% Calm Calm 6.9 mph11.1 kmh 29.97 in1014.9 mb - 0.00 in0.0 mm 0.00 in0.0 mm
09:50 AM 3.8°F-15.7°C -1.5°F-18.6°C 78% 2.3 mph NNE3.7 kmh NNE 4.6 mph7.4 kmh 29.97 in1014.9 mb - 0.00 in0.0 mm 0.00 in0.0 mm
10:00 AM 4.2°F-15.4°C -1.4°F-18.6°C 77% 3.5 mph NNE5.6 kmh NNE 6.9 mph11.1 kmh 29.98 in1015.2 mb - 0.00 in0.0 mm 0.00 in0.0 mm
10:10 AM 4.3°F-15.4°C -1.3°F-18.5°C 77% Calm Calm 2.3 mph3.7 kmh 29.98 in1015.2 mb - 0.00 in0.0 mm 0.00 in0.0 mm
10:20 AM 4.4°F-15.3°C -1.5°F-18.6°C 76% 3.5 mph N5.6 kmh N 3.5 mph5.6 kmh 29.98 in1015.2 mb - 0.00 in0.0 mm 0.00 in0.0 mm
10:30 AM 4.2°F-15.4°C -2.0°F-18.9°C 75% 2.3 mph N3.7 kmh N 5.8 mph9.3 kmh 29.99 in1015.6 mb - 0.00 in0.0 mm 0.00 in0.0 mm
10:40 AM 3.9°F-15.6°C -2.3°F-19.1°C 75% 1.2 mph NNE1.9 kmh NNE 3.5 mph5.6 kmh 30.00 in1015.9 mb - 0.00 in0.0 mm 0.00 in0.0 mm
10:50 AM 3.8°F-15.7°C -2.4°F-19.1°C 75% 1.2 mph N1.9 kmh N 3.5 mph5.6 kmh 30.01 in1016.3 mb - 0.00 in0.0 mm 0.00 in0.0 mm
11:00 AM 4.9°F-15.1°C -1.1°F-18.4°C 76% 2.3 mph NE3.7 kmh NE 10.4 mph16.7 kmh 30.01 in1016.3 mb - 0.00 in0.0 mm 0.00 in0.0 mm
11:10 AM 5.1°F-14.9°C -1.4°F-18.6°C 74% 2.3 mph NNE3.7 kmh NNE 4.6 mph7.4 kmh 30.02 in1016.6 mb - 0.00 in0.0 mm 0.00 in0.0 mm
11:20 AM 5.4°F-14.8°C -1.1°F-18.4°C 74% 1.2 mph NW1.9 kmh NW 3.5 mph5.6 kmh 30.02 in1016.6 mb - 0.00 in0.0 mm 0.00 in0.0 mm
11:30 AM 6.1°F-14.4°C -0.5°F-18.1°C 74% 2.3 mph NE3.7 kmh NE 4.6 mph7.4 kmh 30.02 in1016.6 mb - 0.00 in0.0 mm 0.00 in0.0 mm
11:40 AM 6.6°F-14.1°C -0.2°F-17.9°C 73% 3.5 mph NE5.6 kmh NE 8.1 mph13.0 kmh 30.03 in1016.9 mb - 0.00 in0.0 mm 0.00 in0.0 mm
11:50 AM 6.9°F-13.9°C -0.2°F-17.9°C 72% 1.2 mph NE1.9 kmh NE 2.3 mph3.7 kmh 30.03 in1016.9 mb - 0.00 in0.0 mm 0.00 in0.0 mm
12:00 PM 7.7°F-13.5°C 0.6°F-17.4°C 72% 3.5 mph NNE5.6 kmh NNE 6.9 mph11.1 kmh 30.03 in1016.9 mb - 0.00 in0.0 mm 0.00 in0.0 mm
12:10 PM 7.9°F-13.4°C 0.4°F-17.6°C 71% 3.5 mph NE5.6 kmh NE 5.8 mph9.3 kmh 30.03 in1016.9 mb - 0.00 in0.0 mm 0.00 in0.0 mm
12:20 PM 8.4°F-13.1°C 0.6°F-17.4°C 70% 2.3 mph NNE3.7 kmh NNE 3.5 mph5.6 kmh 30.03 in1016.9 mb - 0.00 in0.0 mm 0.00 in0.0 mm
12:30 PM 9.2°F-12.7°C 1.4°F-17.0°C 70% 3.5 mph N5.6 kmh N 3.5 mph5.6 kmh 30.02 in1016.6 mb - 0.00 in0.0 mm 0.00 in0.0 mm
12:40 PM 9.4°F-12.6°C 1.3°F-17.1°C 69% 1.2 mph NNE1.9 kmh NNE 3.5 mph5.6 kmh 30.02 in1016.6 mb - 0.00 in0.0 mm 0.00 in0.0 mm
12:50 PM 10.1°F-12.2°C 1.9°F-16.7°C 69% 3.5 mph NNE5.6 kmh NNE 3.5 mph5.6 kmh 30.02 in1016.6 mb - 0.00 in0.0 mm 0.00 in0.0 mm
01:00 PM 10.3°F-12.1°C 1.8°F-16.8°C 68% Calm Calm 3.5 mph5.6 kmh 30.02 in1016.6 mb - 0.00 in0.0 mm 0.00 in0.0 mm
01:10 PM 10.8°F-11.8°C 2.3°F-16.5°C 68% 1.2 mph NE1.9 kmh NE 3.5 mph5.6 kmh 30.02 in1016.6 mb - 0.00 in0.0 mm 0.00 in0.0 mm
01:20 PM 10.9°F-11.7°C 2.7°F-16.3°C 69% Calm Calm 1.2 mph1.9 kmh 30.02 in1016.6 mb - 0.00 in0.0 mm 0.00 in0.0 mm
01:30 PM 11.2°F-11.6°C 2.7°F-16.3°C 68% Calm Calm 1.2 mph1.9 kmh 30.02 in1016.6 mb - 0.00 in0.0 mm 0.00 in0.0 mm
01:40 PM 11.2°F-11.6°C 2.7°F-16.3°C 68% 2.3 mph NNW3.7 kmh NNW 2.3 mph3.7 kmh 30.02 in1016.6 mb - 0.00 in0.0 mm 0.00 in0.0 mm
01:50 PM 11.3°F-11.5°C 2.8°F-16.2°C 68% 3.5 mph NW5.6 kmh NW 3.5 mph5.6 kmh 30.02 in1016.6 mb - 0.00 in0.0 mm 0.00 in0.0 mm
02:00 PM 11.3°F-11.5°C 2.8°F-16.2°C 68% 1.2 mph N1.9 kmh N 2.3 mph3.7 kmh 30.02 in1016.6 mb - 0.00 in0.0 mm 0.00 in0.0 mm
02:10 PM 11.4°F-11.4°C 2.9°F-16.2°C 68% 1.2 mph N1.9 kmh N 3.5 mph5.6 kmh 30.02 in1016.6 mb - 0.00 in0.0 mm 0.00 in0.0 mm
02:20 PM 11.5°F-11.4°C 3.3°F-15.9°C 69% Calm Calm 3.5 mph5.6 kmh 30.02 in1016.6 mb - 0.00 in0.0 mm 0.00 in0.0 mm
02:30 PM 11.8°F-11.2°C 3.3°F-15.9°C 68% Calm Calm -- 30.02 in1016.6 mb - 0.00 in0.0 mm 0.00 in0.0 mm
02:40 PM 11.8°F-11.2°C 3.3°F-15.9°C 68% 1.2 mph NW1.9 kmh NW 2.3 mph3.7 kmh 30.02 in1016.6 mb - 0.00 in0.0 mm 0.00 in0.0 mm
02:50 PM 12.1°F-11.1°C 3.6°F-15.8°C 68% Calm Calm 2.3 mph3.7 kmh 30.02 in1016.6 mb - 0.00 in0.0 mm 0.00 in0.0 mm
03:00 PM 13.1°F-10.5°C 4.5°F-15.3°C 68% Calm Calm -- 30.02 in1016.6 mb - 0.00 in0.0 mm 0.00 in0.0 mm
03:10 PM 13.7°F-10.2°C 4.4°F-15.3°C 66% 3.5 mph NW5.6 kmh NW 5.8 mph9.3 kmh 30.02 in1016.6 mb - 0.00 in0.0 mm 0.00 in0.0 mm
03:20 PM 13.8°F-10.1°C 4.5°F-15.3°C 66% Calm Calm 4.6 mph7.4 kmh 30.01 in1016.3 mb - 0.00 in0.0 mm 0.00 in0.0 mm
03:30 PM 14.0°F-10.0°C 4.4°F-15.3°C 65% 3.5 mph N5.6 kmh N 3.5 mph5.6 kmh 30.01 in1016.3 mb - 0.00 in0.0 mm 0.00 in0.0 mm
03:40 PM 14.0°F-10.0°C 4.7°F-15.2°C 66% 1.2 mph N1.9 kmh N 3.5 mph5.6 kmh 30.02 in1016.6 mb - 0.00 in0.0 mm 0.00 in0.0 mm
03:50 PM 13.3°F-10.4°C 3.7°F-15.7°C 65% 2.3 mph NW3.7 kmh NW 4.6 mph7.4 kmh 30.01 in1016.3 mb - 0.00 in0.0 mm 0.00 in0.0 mm
04:00 PM 13.5°F-10.3°C 4.2°F-15.4°C 66% 1.2 mph WNW1.9 kmh WNW 3.5 mph5.6 kmh 30.01 in1016.3 mb - 0.00 in0.0 mm 0.00 in0.0 mm
04:10 PM 13.6°F-10.2°C 4.0°F-15.6°C 65% 3.5 mph NNW5.6 kmh NNW 5.8 mph9.3 kmh 30.02 in1016.6 mb - 0.00 in0.0 mm 0.00 in0.0 mm
04:20 PM 13.5°F-10.3°C 3.6°F-15.8°C 64% 2.3 mph NW3.7 kmh NW 4.6 mph7.4 kmh 30.01 in1016.3 mb - 0.00 in0.0 mm 0.00 in0.0 mm
04:30 PM 13.7°F-10.2°C 4.1°F-15.5°C 65% Calm Calm -- 30.01 in1016.3 mb - 0.00 in0.0 mm 0.00 in0.0 mm
04:40 PM 13.9°F-10.1°C 4.3°F-15.4°C 65% 1.2 mph NW1.9 kmh NW 6.9 mph11.1 kmh 30.02 in1016.6 mb - 0.00 in0.0 mm 0.00 in0.0 mm
04:50 PM 13.4°F-10.3°C 3.5°F-15.8°C 64% 2.3 mph NNW3.7 kmh NNW 4.6 mph7.4 kmh 30.02 in1016.6 mb - 0.00 in0.0 mm 0.00 in0.0 mm
05:00 PM 12.8°F-10.7°C 3.2°F-16.0°C 65% 3.5 mph W5.6 kmh W 5.8 mph9.3 kmh 30.03 in1016.9 mb - 0.00 in0.0 mm 0.00 in0.0 mm
05:20 PM 11.2°F-11.6°C 3.9°F-15.6°C 72% 2.3 mph W3.7 kmh W 3.5 mph5.6 kmh 30.03 in1016.9 mb - 0.00 in0.0 mm 0.00 in0.0 mm
05:30 PM 11.0°F-11.7°C 4.0°F-15.6°C 73% 3.5 mph WNW5.6 kmh WNW 6.9 mph11.1 kmh 30.04 in1017.3 mb - 0.00 in0.0 mm 0.00 in0.0 mm
05:40 PM 10.7°F-11.8°C 3.4°F-15.9°C 72% 1.2 mph NW1.9 kmh NW 5.8 mph9.3 kmh 30.04 in1017.3 mb - 0.00 in0.0 mm 0.00 in0.0 mm
06:00 PM 9.9°F-12.3°C 3.0°F-16.1°C 73% 2.3 mph WNW3.7 kmh WNW 8.1 mph13.0 kmh 30.04 in1017.3 mb - 0.00 in0.0 mm 0.00 in0.0 mm
06:10 PM 9.1°F-12.7°C 2.5°F-16.4°C 74% 4.6 mph WNW7.4 kmh WNW 5.8 mph9.3 kmh 30.05 in1017.6 mb - 0.00 in0.0 mm 0.00 in0.0 mm
06:30 PM 7.7°F-13.5°C 1.1°F-17.2°C 74% 4.6 mph NW7.4 kmh NW 11.5 mph18.5 kmh 30.06 in1017.9 mb - 0.00 in0.0 mm 0.00 in0.0 mm
06:40 PM 7.2°F-13.8°C 1.0°F-17.2°C 75% 2.3 mph NW3.7 kmh NW 5.8 mph9.3 kmh 30.06 in1017.9 mb - 0.00 in0.0 mm 0.00 in0.0 mm
06:50 PM 6.9°F-13.9°C 0.6°F-17.4°C 75% 2.3 mph NW3.7 kmh NW 5.8 mph9.3 kmh 30.07 in1018.3 mb - 0.00 in0.0 mm 0.00 in0.0 mm
07:00 PM 6.5°F-14.2°C 0.6°F-17.4°C 76% 2.3 mph NW3.7 kmh NW 5.8 mph9.3 kmh 30.06 in1017.9 mb - 0.00 in0.0 mm 0.00 in0.0 mm
07:10 PM 6.4°F-14.2°C 0.4°F-17.6°C 76% Calm Calm -- 30.06 in1017.9 mb - 0.00 in0.0 mm 0.00 in0.0 mm
07:20 PM 5.9°F-14.5°C 0.0°F-17.8°C 76% 1.2 mph NW1.9 kmh NW 5.8 mph9.3 kmh 30.06 in1017.9 mb - 0.00 in0.0 mm 0.00 in0.0 mm
07:30 PM 5.6°F-14.7°C -0.3°F-17.9°C 76% 2.3 mph NW3.7 kmh NW 3.5 mph5.6 kmh 30.07 in1018.3 mb - 0.00 in0.0 mm 0.00 in0.0 mm
07:40 PM 5.3°F-14.8°C -0.6°F-18.1°C 76% 3.5 mph NW5.6 kmh NW 3.5 mph5.6 kmh 30.07 in1018.3 mb - 0.00 in0.0 mm 0.00 in0.0 mm
07:50 PM 4.7°F-15.2°C -1.8°F-18.8°C 74% 3.5 mph NW5.6 kmh NW 10.4 mph16.7 kmh 30.07 in1018.3 mb - 0.00 in0.0 mm 0.00 in0.0 mm
08:00 PM 4.2°F-15.4°C -2.3°F-19.1°C 74% 2.3 mph WNW3.7 kmh WNW 3.5 mph5.6 kmh 30.07 in1018.3 mb - 0.00 in0.0 mm 0.00 in0.0 mm
08:10 PM 4.0°F-15.6°C -2.4°F-19.1°C 74% 2.3 mph NW3.7 kmh NW 4.6 mph7.4 kmh 30.07 in1018.3 mb - 0.00 in0.0 mm 0.00 in0.0 mm
08:20 PM 3.8°F-15.7°C -2.6°F-19.2°C 74% 3.5 mph NW5.6 kmh NW 8.1 mph13.0 kmh 30.07 in1018.3 mb - 0.00 in0.0 mm 0.00 in0.0 mm
08:30 PM 3.5°F-15.8°C -2.9°F-19.4°C 74% 2.3 mph NNW3.7 kmh NNW 3.5 mph5.6 kmh 30.08 in1018.6 mb - 0.00 in0.0 mm 0.00 in0.0 mm
08:40 PM 3.3°F-15.9°C -3.4°F-19.7°C 73% 1.2 mph NW1.9 kmh NW 5.8 mph9.3 kmh 30.08 in1018.6 mb - 0.00 in0.0 mm 0.00 in0.0 mm
08:50 PM 3.1°F-16.1°C -3.6°F-19.8°C 73% 1.2 mph WNW1.9 kmh WNW 4.6 mph7.4 kmh 30.08 in1018.6 mb - 0.00 in0.0 mm 0.00 in0.0 mm
09:00 PM 3.2°F-16.0°C -3.8°F-19.9°C 72% 1.2 mph NW1.9 kmh NW 4.6 mph7.4 kmh 30.08 in1018.6 mb - 0.00 in0.0 mm 0.00 in0.0 mm
09:10 PM 3.3°F-15.9°C -4.0°F-20.0°C 71% 2.3 mph NNW3.7 kmh NNW 4.6 mph7.4 kmh 30.08 in1018.6 mb - 0.00 in0.0 mm 0.00 in0.0 mm
09:20 PM 3.3°F-15.9°C -4.3°F-20.2°C 70% 2.3 mph NW3.7 kmh NW 5.8 mph9.3 kmh 30.08 in1018.6 mb - 0.00 in0.0 mm 0.00 in0.0 mm
09:30 PM 3.3°F-15.9°C -4.6°F-20.3°C 69% 1.2 mph NW1.9 kmh NW 2.3 mph3.7 kmh 30.07 in1018.3 mb - 0.00 in0.0 mm 0.00 in0.0 mm
09:40 PM 3.3°F-15.9°C -4.6°F-20.3°C 69% 3.5 mph W5.6 kmh W 4.6 mph7.4 kmh 30.07 in1018.3 mb - 0.00 in0.0 mm 0.00 in0.0 mm
09:50 PM 3.3°F-15.9°C -4.6°F-20.3°C 69% 3.5 mph NNW5.6 kmh NNW 4.6 mph7.4 kmh 30.07 in1018.3 mb - 0.00 in0.0 mm 0.00 in0.0 mm
10:00 PM 3.2°F-16.0°C -5.0°F-20.6°C 68% 3.5 mph NW5.6 kmh NW 4.6 mph7.4 kmh 30.07 in1018.3 mb - 0.00 in0.0 mm 0.00 in0.0 mm
10:10 PM 2.8°F-16.2°C -5.4°F-20.8°C 68% 2.3 mph W3.7 kmh W 3.5 mph5.6 kmh 30.07 in1018.3 mb - 0.00 in0.0 mm 0.00 in0.0 mm
10:20 PM 2.3°F-16.5°C -5.9°F-21.1°C 68% 1.2 mph NNW1.9 kmh NNW 5.8 mph9.3 kmh 30.07 in1018.3 mb - 0.00 in0.0 mm 0.00 in0.0 mm
10:30 PM 1.8°F-16.8°C -6.0°F-21.1°C 69% 1.2 mph WNW1.9 kmh WNW 2.3 mph3.7 kmh 30.07 in1018.3 mb - 0.00 in0.0 mm 0.00 in0.0 mm
10:40 PM 1.4°F-17.0°C -6.4°F-21.3°C 69% 1.2 mph NW1.9 kmh NW 2.3 mph3.7 kmh 30.06 in1017.9 mb - 0.00 in0.0 mm 0.00 in0.0 mm
10:50 PM 1.2°F-17.1°C -6.3°F-21.3°C 70% Calm Calm 1.2 mph1.9 kmh 30.06 in1017.9 mb - 0.00 in0.0 mm 0.00 in0.0 mm
11:00 PM 0.8°F-17.3°C -6.7°F-21.5°C 70% Calm Calm 2.3 mph3.7 kmh 30.06 in1017.9 mb - 0.00 in0.0 mm 0.00 in0.0 mm
11:10 PM 0.6°F-17.4°C -6.6°F-21.4°C 71% 1.2 mph W1.9 kmh W 3.5 mph5.6 kmh 30.05 in1017.6 mb - 0.00 in0.0 mm 0.00 in0.0 mm
11:20 PM 0.5°F-17.5°C -6.7°F-21.5°C 71% 1.2 mph W1.9 kmh W 3.5 mph5.6 kmh 30.05 in1017.6 mb - 0.00 in0.0 mm 0.00 in0.0 mm
11:30 PM 0.3°F-17.6°C -6.9°F-21.6°C 71% Calm Calm 2.3 mph3.7 kmh 30.05 in1017.6 mb - 0.00 in0.0 mm 0.00 in0.0 mm
11:40 PM 0.2°F-17.7°C -7.0°F-21.7°C 71% Calm Calm 3.5 mph5.6 kmh 30.04 in1017.3 mb - 0.00 in0.0 mm 0.00 in0.0 mm
11:50 PM -0.2°F-17.9°C -7.4°F-21.9°C 71% Calm Calm 1.2 mph1.9 kmh 30.04 in1017.3 mb - 0.00 in0.0 mm 0.00 in0.0 mm